createdAt,value
2018-06-22T00:02:08.141Z,10.34
2018-06-22T00:04:37.532Z,10.36
2018-06-22T00:07:06.956Z,10.36
2018-06-22T00:09:36.483Z,10.36
2018-06-22T00:12:06.125Z,10.36
2018-06-22T00:14:35.481Z,10.37
2018-06-22T00:17:04.928Z,10.35
2018-06-22T00:19:34.239Z,10.36
2018-06-22T00:22:03.596Z,10.36
2018-06-22T00:24:33.529Z,10.34
2018-06-22T00:27:02.845Z,10.35
2018-06-22T00:29:33.254Z,10.34
2018-06-22T00:32:02.861Z,10.34
2018-06-22T00:34:32.165Z,10.34
2018-06-22T00:37:01.377Z,10.33
2018-06-22T00:39:30.662Z,10.35
2018-06-22T00:41:59.862Z,10.36
2018-06-22T00:44:29.069Z,10.38
2018-06-22T00:46:58.279Z,10.38
2018-06-22T00:49:31.566Z,10.40
2018-06-22T00:52:01.358Z,10.38
2018-06-22T00:54:30.759Z,10.42
2018-06-22T00:57:00.008Z,10.45
2018-06-22T00:59:29.280Z,10.45
2018-06-22T01:01:59.528Z,10.45
2018-06-22T01:04:28.837Z,10.49
2018-06-22T01:06:58.079Z,10.53
2018-06-22T01:09:27.325Z,10.55
2018-06-22T01:11:56.516Z,10.58
2018-06-22T01:14:25.870Z,10.63
2018-06-22T01:16:55.280Z,10.64
2018-06-22T01:19:24.517Z,10.68
2018-06-22T01:21:53.825Z,10.67
2018-06-22T01:24:23.117Z,10.71
2018-06-22T01:26:52.379Z,10.71
2018-06-22T01:29:27.035Z,10.75
2018-06-22T01:31:56.237Z,10.79
2018-06-22T01:34:25.499Z,10.83
2018-06-22T01:36:54.837Z,10.85
2018-06-22T01:39:24.141Z,10.90
2018-06-22T01:41:53.413Z,10.94
2018-06-22T01:44:22.816Z,10.96
2018-06-22T01:46:52.126Z,11.00
2018-06-22T01:49:21.415Z,10.95
2018-06-22T01:51:50.774Z,10.93
2018-06-22T01:54:20.016Z,10.89
2018-06-22T01:56:49.232Z,10.92
2018-06-22T01:59:18.546Z,10.90
2018-06-22T02:01:47.873Z,10.91
2018-06-22T02:04:17.249Z,10.89
2018-06-22T02:06:46.625Z,10.87
2018-06-22T02:09:16.169Z,10.84
2018-06-22T02:11:46.197Z,10.85
2018-06-22T02:14:15.435Z,10.86
2018-06-22T02:16:44.654Z,10.85
2018-06-22T02:19:13.941Z,10.86
2018-06-22T02:21:43.367Z,10.88
2018-06-22T02:24:12.751Z,10.87
2018-06-22T02:26:42.218Z,10.83
2018-06-22T02:29:11.671Z,10.83
2018-06-22T02:31:41.621Z,10.82
2018-06-22T02:34:11.036Z,10.82
2018-06-22T02:36:40.733Z,10.81
2018-06-22T02:39:11.900Z,10.83
2018-06-22T02:41:41.798Z,10.86
2018-06-22T02:44:11.471Z,10.88
2018-06-22T02:46:41.015Z,10.89
2018-06-22T02:49:10.731Z,10.91
2018-06-22T02:51:40.209Z,10.91
2018-06-22T02:54:09.743Z,10.89
2018-06-22T02:56:39.215Z,10.89
2018-06-22T02:59:08.581Z,10.93
2018-06-22T03:01:37.944Z,10.94
2018-06-22T03:04:07.564Z,10.96
2018-06-22T03:06:37.000Z,10.97
2018-06-22T03:09:07.968Z,11.03
2018-06-22T03:11:37.507Z,11.03
2018-06-22T03:14:06.984Z,11.05
2018-06-22T03:16:36.823Z,11.06
2018-06-22T03:19:06.393Z,11.13
2018-06-22T03:21:35.941Z,11.17
2018-06-22T03:24:05.607Z,11.18
2018-06-22T03:26:35.051Z,11.18
2018-06-22T03:29:04.393Z,11.18
2018-06-22T03:31:34.332Z,11.16
2018-06-22T03:34:03.634Z,11.18
2018-06-22T03:36:34.130Z,11.17
2018-06-22T03:39:03.773Z,11.22
2018-06-22T03:41:33.102Z,11.19
2018-06-22T03:44:02.459Z,11.22
2018-06-22T03:46:31.787Z,11.17
2018-06-22T03:49:01.054Z,11.20
2018-06-22T03:51:30.345Z,11.22
2018-06-22T03:53:59.678Z,11.23
2018-06-22T03:56:28.993Z,11.27
2018-06-22T03:58:58.196Z,11.30
2018-06-22T04:01:28.079Z,11.29
2018-06-22T04:03:57.430Z,11.30
2018-06-22T04:06:26.710Z,11.34
2018-06-22T04:08:56.311Z,11.33
2018-06-22T04:11:25.680Z,11.38
2018-06-22T04:13:54.958Z,11.37
2018-06-22T04:16:24.332Z,11.42
2018-06-22T04:18:54.708Z,11.47
2018-06-22T04:21:24.073Z,11.50
2018-06-22T04:23:53.519Z,11.59
2018-06-22T04:26:23.043Z,11.58
2018-06-22T04:28:52.277Z,11.57
2018-06-22T04:31:21.941Z,11.62
2018-06-22T04:33:51.328Z,11.59
2018-06-22T04:36:20.692Z,11.62
2018-06-22T04:38:50.149Z,11.67
2018-06-22T04:41:19.505Z,11.71
2018-06-22T04:43:48.857Z,11.74
2018-06-22T04:46:18.568Z,11.76
2018-06-22T04:48:48.079Z,11.79
2018-06-22T04:51:17.518Z,11.89
2018-06-22T04:53:46.885Z,11.88
2018-06-22T04:56:16.212Z,11.91
2018-06-22T04:58:45.446Z,12.00
2018-06-22T05:01:14.956Z,12.10
2018-06-22T05:03:44.326Z,12.09
2018-06-22T05:06:13.625Z,12.13
2018-06-22T05:08:43.017Z,12.13
2018-06-22T05:11:12.570Z,12.13
2018-06-22T05:13:41.890Z,12.12
2018-06-22T05:16:11.313Z,12.10
2018-06-22T05:18:40.997Z,12.13
2018-06-22T05:21:10.413Z,12.19
2018-06-22T05:23:40.135Z,12.17
2018-06-22T05:26:09.742Z,12.27
2018-06-22T05:28:39.208Z,12.33
2018-06-22T05:31:08.628Z,12.42
2018-06-22T05:33:38.007Z,12.56
2018-06-22T05:36:07.336Z,12.60
2018-06-22T05:38:37.354Z,12.64
2018-06-22T05:41:06.959Z,12.64
2018-06-22T05:43:36.356Z,12.63
2018-06-22T05:46:06.269Z,12.70
2018-06-22T05:48:35.765Z,12.75
2018-06-22T05:51:05.534Z,12.83
2018-06-22T05:53:35.269Z,12.86
2018-06-22T05:56:04.916Z,12.90
2018-06-22T05:58:34.439Z,12.89
2018-06-22T06:01:04.544Z,12.81
2018-06-22T06:03:34.247Z,12.87
2018-06-22T06:06:03.628Z,12.89
2018-06-22T06:08:33.044Z,12.93
2018-06-22T06:11:02.416Z,12.86
2018-06-22T06:13:31.627Z,12.99
2018-06-22T06:16:01.062Z,13.16
2018-06-22T06:18:30.324Z,13.33
2018-06-22T06:20:59.569Z,13.54
2018-06-22T06:23:28.952Z,13.61
2018-06-22T06:25:58.253Z,13.72
2018-06-22T06:28:27.841Z,13.87
2018-06-22T06:30:57.234Z,13.78
2018-06-22T06:33:26.568Z,13.70
2018-06-22T06:35:55.945Z,13.62
2018-06-22T06:38:26.067Z,13.61
2018-06-22T06:40:55.361Z,13.78
2018-06-22T06:43:24.755Z,13.82
2018-06-22T06:45:54.114Z,13.82
2018-06-22T06:48:23.449Z,13.93
2018-06-22T06:50:52.902Z,14.02
2018-06-22T06:53:22.168Z,14.21
2018-06-22T06:55:51.592Z,14.26
2018-06-22T06:58:20.826Z,14.32
2018-06-22T07:00:56.391Z,14.30
2018-06-22T07:03:25.704Z,14.11
2018-06-22T07:05:54.987Z,14.11
2018-06-22T07:08:24.380Z,14.22
2018-06-22T07:10:53.806Z,14.11
2018-06-22T07:13:23.057Z,14.08
2018-06-22T07:15:52.353Z,14.21
2018-06-22T07:18:21.636Z,14.36
2018-06-22T07:20:50.873Z,14.43
2018-06-22T07:23:20.191Z,14.50
2018-06-22T07:25:49.448Z,14.57
2018-06-22T07:28:18.839Z,14.59
2018-06-22T07:30:48.529Z,14.71
2018-06-22T07:33:17.792Z,14.75
2018-06-22T07:35:47.466Z,14.67
2018-06-22T07:38:16.944Z,14.67
2018-06-22T07:40:46.263Z,14.81
2018-06-22T07:43:15.806Z,15.05
2018-06-22T07:45:45.252Z,15.12
2018-06-22T07:48:14.973Z,15.35
2018-06-22T07:50:44.582Z,15.52
2018-06-22T07:53:14.103Z,15.85
2018-06-22T07:55:43.580Z,15.80
2018-06-22T07:58:13.140Z,15.81
2018-06-22T08:00:42.764Z,15.57
2018-06-22T08:03:12.150Z,15.48
2018-06-22T08:05:41.916Z,15.58
2018-06-22T08:08:11.289Z,15.61
2018-06-22T08:10:40.911Z,15.82
2018-06-22T08:13:11.726Z,15.96
2018-06-22T08:15:41.678Z,16.12
2018-06-22T08:18:11.299Z,16.32
2018-06-22T08:20:40.800Z,16.24
2018-06-22T08:23:10.709Z,16.16
2018-06-22T08:25:40.375Z,16.12
2018-06-22T08:28:10.394Z,16.08
2018-06-22T08:30:40.585Z,16.04
2018-06-22T08:33:10.229Z,16.10
2018-06-22T08:35:41.032Z,15.87
2018-06-22T08:38:10.712Z,16.22
2018-06-22T08:40:40.500Z,16.39
2018-06-22T08:43:10.158Z,16.86
2018-06-22T08:45:40.306Z,17.26
2018-06-22T08:48:10.052Z,17.24
2018-06-22T08:50:39.722Z,17.08
2018-06-22T08:53:10.322Z,17.06
2018-06-22T08:55:40.348Z,17.04
2018-06-22T08:58:10.229Z,16.96
2018-06-22T09:00:40.396Z,17.10
2018-06-22T09:03:10.496Z,17.49
2018-06-22T09:05:40.384Z,17.39
2018-06-22T09:08:10.234Z,17.43
2018-06-22T09:10:40.380Z,17.45
2018-06-22T09:13:11.042Z,17.52
2018-06-22T09:15:40.784Z,17.65
2018-06-22T09:18:10.633Z,17.46
2018-06-22T09:20:40.251Z,17.65
2018-06-22T09:23:10.546Z,17.71
2018-06-22T09:25:40.313Z,17.79
2018-06-22T09:28:10.244Z,17.86
2018-06-22T09:30:40.442Z,17.78
2018-06-22T09:33:10.247Z,17.88
2018-06-22T09:35:40.101Z,17.85
2018-06-22T09:38:09.870Z,18.10
2018-06-22T09:40:39.407Z,18.34
2018-06-22T09:43:09.038Z,18.36
2018-06-22T09:45:38.820Z,18.06
2018-06-22T09:48:08.607Z,18.23
2018-06-22T09:50:38.696Z,18.64
2018-06-22T09:53:08.671Z,18.63
2018-06-22T09:55:38.609Z,18.57
2018-06-22T09:58:09.935Z,19.29
2018-06-22T10:00:39.997Z,19.94
2018-06-22T10:03:09.641Z,19.25
2018-06-22T10:05:39.166Z,19.45
2018-06-22T10:08:08.925Z,20.32
2018-06-22T10:10:38.521Z,21.30
2018-06-22T10:13:08.102Z,21.38
2018-06-22T10:15:37.790Z,21.61
2018-06-22T10:18:07.472Z,21.14
2018-06-22T10:20:37.138Z,20.27
2018-06-22T10:23:07.386Z,20.74
2018-06-22T10:25:37.344Z,22.15
2018-06-22T10:28:07.163Z,22.08
2018-06-22T10:30:36.915Z,21.38
2018-06-22T10:33:06.935Z,21.94
2018-06-22T10:35:36.757Z,22.56
2018-06-22T10:38:06.665Z,21.54
2018-06-22T10:40:36.487Z,20.72
2018-06-22T10:43:06.960Z,20.45
2018-06-22T10:45:36.573Z,20.37
2018-06-22T10:48:06.202Z,19.88
2018-06-22T10:50:36.235Z,19.66
2018-06-22T10:53:06.066Z,20.55
2018-06-22T10:55:35.478Z,21.36
2018-06-22T10:58:05.778Z,21.32
2018-06-22T11:00:35.368Z,20.95
2018-06-22T11:03:05.285Z,20.72
2018-06-22T11:05:35.426Z,20.72
2018-06-22T11:08:05.209Z,20.42
2018-06-22T11:10:36.150Z,19.95
2018-06-22T11:13:06.077Z,19.96
2018-06-22T11:15:36.720Z,19.88
2018-06-22T11:18:06.900Z,19.42
2018-06-22T11:20:36.642Z,19.50
2018-06-22T11:23:06.458Z,19.31
2018-06-22T11:25:36.359Z,19.46
2018-06-22T11:28:06.481Z,19.59
2018-06-22T11:30:36.574Z,19.74
2018-06-22T11:33:06.123Z,19.48
2018-06-22T11:35:36.302Z,19.10
2018-06-22T11:38:05.898Z,19.05
2018-06-22T11:40:35.638Z,19.10
2018-06-22T11:43:06.794Z,18.72
2018-06-22T11:45:36.788Z,19.14
2018-06-22T11:48:06.592Z,19.80
2018-06-22T11:50:36.231Z,20.77
2018-06-22T11:53:06.041Z,20.37
2018-06-22T11:55:36.036Z,20.33
2018-06-22T11:58:06.152Z,21.02
2018-06-22T12:00:36.150Z,21.14
2018-06-22T12:03:06.371Z,21.15
2018-06-22T12:05:36.156Z,21.50
2018-06-22T12:08:06.663Z,21.96
2018-06-22T12:10:36.288Z,21.54
2018-06-22T12:13:06.242Z,21.57
2018-06-22T12:15:36.267Z,22.21
2018-06-22T12:18:06.702Z,21.60
2018-06-22T12:20:36.513Z,21.15
2018-06-22T12:23:06.949Z,21.45
2018-06-22T12:25:37.266Z,21.99
2018-06-22T12:28:07.641Z,22.02
2018-06-22T12:30:38.175Z,20.95
2018-06-22T12:33:08.698Z,20.33
2018-06-22T12:35:38.250Z,20.44
2018-06-22T12:38:08.093Z,21.04
2018-06-22T12:40:37.830Z,20.94
2018-06-22T12:43:07.486Z,20.30
2018-06-22T12:45:37.418Z,19.80
2018-06-22T12:48:07.731Z,19.52
2018-06-22T12:50:37.609Z,19.52
2018-06-22T12:53:07.513Z,19.33
2018-06-22T12:55:37.334Z,19.50
2018-06-22T12:58:07.109Z,19.50
2018-06-22T13:00:36.789Z,19.19
2018-06-22T13:03:06.289Z,18.86
2018-06-22T13:05:36.244Z,18.61
2018-06-22T13:08:06.640Z,18.66
2018-06-22T13:10:36.095Z,18.38
2018-06-22T13:13:05.852Z,18.46
2018-06-22T13:15:36.180Z,19.12
2018-06-22T13:18:06.256Z,19.40
2018-06-22T13:20:36.407Z,19.48
2018-06-22T13:23:06.582Z,19.85
2018-06-22T13:25:36.924Z,20.00
2018-06-22T13:28:07.598Z,19.66
2018-06-22T13:30:37.630Z,19.33
2018-06-22T13:33:07.422Z,19.69
2018-06-22T13:35:37.290Z,19.95
2018-06-22T13:38:07.320Z,19.35
2018-06-22T13:40:37.361Z,19.45
2018-06-22T13:43:06.967Z,19.46
2018-06-22T13:45:36.805Z,19.73
2018-06-22T13:48:06.924Z,19.35
2018-06-22T13:50:36.774Z,18.85
2018-06-22T13:53:06.595Z,18.79
2018-06-22T13:55:36.792Z,19.35
2018-06-22T13:58:06.505Z,19.64
2018-06-22T14:00:36.838Z,19.28
2018-06-22T14:03:06.852Z,19.48
2018-06-22T14:05:41.637Z,19.52
2018-06-22T14:08:11.250Z,18.80
2018-06-22T14:10:40.713Z,18.20
2018-06-22T14:13:10.195Z,17.99
2018-06-22T14:15:39.622Z,18.73
2018-06-22T14:18:13.068Z,19.19
2018-06-22T14:20:42.727Z,18.81
2018-06-22T14:23:12.373Z,18.39
2018-06-22T14:25:42.298Z,18.28
2018-06-22T14:28:11.840Z,18.04
2018-06-22T14:30:41.449Z,17.78
2018-06-22T14:33:17.882Z,17.69
2018-06-22T14:35:50.782Z,17.63
2018-06-22T14:38:23.334Z,17.55
2018-06-22T14:40:53.345Z,17.66
2018-06-22T14:43:23.790Z,17.63
2018-06-22T14:45:53.104Z,17.58
2018-06-22T14:48:22.856Z,17.44
2018-06-22T14:50:52.157Z,17.02
2018-06-22T14:53:27.682Z,16.92
2018-06-22T14:56:03.020Z,17.01
2018-06-22T14:58:37.626Z,17.02
2018-06-22T15:01:12.757Z,17.04
2018-06-22T15:03:47.756Z,17.05
2018-06-22T15:06:22.311Z,16.94
2018-06-22T15:08:51.693Z,16.72
2018-06-22T15:11:21.188Z,16.62
2018-06-22T15:13:50.601Z,16.46
2018-06-22T15:16:20.116Z,16.39
2018-06-22T15:18:49.592Z,16.37
2018-06-22T15:21:19.060Z,16.17
2018-06-22T15:23:48.445Z,16.00
2018-06-22T15:26:17.737Z,16.00
2018-06-22T15:28:47.321Z,16.02
2018-06-22T15:31:16.824Z,16.09
2018-06-22T15:33:51.373Z,16.06
2018-06-22T15:36:25.877Z,15.95
2018-06-22T15:39:00.495Z,15.85
2018-06-22T15:41:35.021Z,15.76
2018-06-22T15:44:10.301Z,15.71
2018-06-22T15:46:45.323Z,15.57
2018-06-22T15:49:20.203Z,15.50
2018-06-22T15:51:55.185Z,15.44
2018-06-22T15:54:29.958Z,15.39
2018-06-22T15:56:59.314Z,15.38
2018-06-22T15:59:28.677Z,15.51
2018-06-22T16:02:02.137Z,15.53
2018-06-22T16:04:31.455Z,15.53
2018-06-22T16:07:01.857Z,15.45
2018-06-22T16:09:31.339Z,15.31
2018-06-22T16:12:06.196Z,15.44
2018-06-22T16:14:40.965Z,15.40
2018-06-22T16:17:15.650Z,15.47
2018-06-22T16:19:50.987Z,15.56
2018-06-22T16:22:25.815Z,15.56
2018-06-22T16:25:00.843Z,15.44
2018-06-22T16:27:31.868Z,15.31
2018-06-22T16:30:01.273Z,15.26
2018-06-22T16:32:30.590Z,15.06
2018-06-22T16:34:59.995Z,14.90
2018-06-22T16:37:29.351Z,14.84
2018-06-22T16:39:58.594Z,14.84
2018-06-22T16:42:28.033Z,14.81
2018-06-22T16:44:57.354Z,14.67
2018-06-22T16:47:26.770Z,14.67
2018-06-22T16:49:56.037Z,14.68
2018-06-22T16:52:25.713Z,14.69
2018-06-22T16:54:55.091Z,14.76
2018-06-22T16:57:24.410Z,14.81
2018-06-22T16:59:53.956Z,14.78
2018-06-22T17:02:23.271Z,14.80
2018-06-22T17:04:52.628Z,14.83
2018-06-22T17:07:27.621Z,14.82
2018-06-22T17:10:02.202Z,14.79
2018-06-22T17:12:37.750Z,14.79
2018-06-22T17:15:12.757Z,14.80
2018-06-22T17:17:47.929Z,14.85
2018-06-22T17:20:17.355Z,14.91
2018-06-22T17:22:46.759Z,14.88
2018-06-22T17:25:17.854Z,14.85
2018-06-22T17:27:47.477Z,14.87
2018-06-22T17:30:17.231Z,14.91
2018-06-22T17:32:47.289Z,14.87
2018-06-22T17:35:16.902Z,14.86
2018-06-22T17:37:46.336Z,14.87
2018-06-22T17:40:16.716Z,14.85
2018-06-22T17:42:46.776Z,14.85
2018-06-22T17:45:16.743Z,14.86
2018-06-22T17:47:46.520Z,14.88
2018-06-22T17:50:21.201Z,14.83
2018-06-22T17:52:50.581Z,14.84
2018-06-22T17:55:20.006Z,14.79
2018-06-22T17:57:49.518Z,14.77
2018-06-22T18:00:24.393Z,14.73
2018-06-22T18:02:58.872Z,14.73
2018-06-22T18:05:33.625Z,14.66
2018-06-22T18:08:03.595Z,14.60
2018-06-22T18:10:38.442Z,14.52
2018-06-22T18:13:08.247Z,14.38
2018-06-22T18:15:38.063Z,14.42
2018-06-22T18:18:07.936Z,14.38
2018-06-22T18:20:37.547Z,14.39
2018-06-22T18:23:07.324Z,14.29
2018-06-22T18:25:36.998Z,14.24
2018-06-22T18:28:07.635Z,14.17
2018-06-22T18:30:37.335Z,14.07
2018-06-22T18:33:07.275Z,14.09
2018-06-22T18:35:37.187Z,14.06
2018-06-22T18:38:06.818Z,13.99
2018-06-22T18:40:36.734Z,13.88
2018-06-22T18:43:06.937Z,13.76
2018-06-22T18:45:36.441Z,13.71
2018-06-22T18:48:06.221Z,13.70
2018-06-22T18:50:35.887Z,13.70
2018-06-22T18:53:10.980Z,13.70
2018-06-22T18:57:48.340Z,13.61
2018-06-22T19:00:23.153Z,13.53
2018-06-22T19:02:57.754Z,13.51
2018-06-22T19:05:27.387Z,13.53
2018-06-22T19:07:56.850Z,13.55
2018-06-22T19:10:26.337Z,13.57
2018-06-22T19:12:55.764Z,13.59
2018-06-22T19:15:25.177Z,13.45
2018-06-22T19:17:54.612Z,13.46
2018-06-22T19:20:24.211Z,13.49
2018-06-22T19:22:53.668Z,13.47
2018-06-22T19:25:23.041Z,13.46
2018-06-22T19:27:52.394Z,13.41
2018-06-22T19:30:21.882Z,13.36
2018-06-22T19:32:51.139Z,13.29
2018-06-22T19:35:21.068Z,13.34
2018-06-22T19:37:50.380Z,13.34
2018-06-22T19:40:19.839Z,13.31
2018-06-22T19:42:50.369Z,13.27
2018-06-22T19:45:25.118Z,13.24
2018-06-22T19:47:59.984Z,13.18
2018-06-22T19:50:34.380Z,13.15
2018-06-22T19:53:08.959Z,13.18
2018-06-22T19:55:39.061Z,13.20
2018-06-22T19:58:08.669Z,13.23
2018-06-22T20:00:38.262Z,13.22
2018-06-22T20:03:07.886Z,13.21
2018-06-22T20:05:37.784Z,13.18
2018-06-22T20:08:07.449Z,13.13
2018-06-22T20:10:37.198Z,13.10
2018-06-22T20:13:06.624Z,13.12
2018-06-22T20:15:36.466Z,13.09
2018-06-22T20:18:06.974Z,13.08
2018-06-22T20:20:36.474Z,13.08
2018-06-22T20:23:07.372Z,13.09
2018-06-22T20:25:42.127Z,13.11
2018-06-22T20:28:12.013Z,13.09
2018-06-22T20:30:41.386Z,13.10
2018-06-22T20:33:11.019Z,13.01
2018-06-22T20:35:45.996Z,13.06
2018-06-22T20:38:20.955Z,13.02
2018-06-22T20:40:55.745Z,13.03
2018-06-22T20:43:30.472Z,13.02
2018-06-22T20:46:00.185Z,13.02
2018-06-22T20:48:34.814Z,13.01
2018-06-22T20:51:04.352Z,12.98
2018-06-22T20:53:33.756Z,12.98
2018-06-22T20:56:03.215Z,13.01
2018-06-22T20:58:33.595Z,13.01
2018-06-22T21:01:03.021Z,13.03
2018-06-22T21:03:32.518Z,13.05
2018-06-22T21:06:01.935Z,13.09
2018-06-22T21:08:31.451Z,13.05
2018-06-22T21:11:00.743Z,13.08
2018-06-22T21:13:30.059Z,13.08
2018-06-22T21:15:59.527Z,13.04
2018-06-22T21:18:28.762Z,13.06
2018-06-22T21:21:03.997Z,12.98
2018-06-22T21:23:33.445Z,12.95
2018-06-22T21:26:02.748Z,12.90
2018-06-22T21:28:37.371Z,12.88
2018-06-22T21:31:13.425Z,12.87
2018-06-22T21:33:48.650Z,12.80
2018-06-22T21:36:23.224Z,12.76
2018-06-22T21:38:55.940Z,12.75
2018-06-22T21:41:25.262Z,12.73
2018-06-22T21:43:54.832Z,12.69
2018-06-22T21:46:24.522Z,12.68
2018-06-22T21:48:53.866Z,12.63
2018-06-22T21:51:23.438Z,12.58
2018-06-22T21:53:52.834Z,12.57
2018-06-22T21:56:24.862Z,12.52
2018-06-22T21:58:54.296Z,12.45
2018-06-22T22:01:23.660Z,12.41
2018-06-22T22:03:52.972Z,12.40
2018-06-22T22:06:22.418Z,12.36
2018-06-22T22:08:51.721Z,12.35
2018-06-22T22:11:21.216Z,12.31
2018-06-22T22:13:50.813Z,12.28
2018-06-22T22:16:20.155Z,12.29
2018-06-22T22:18:49.526Z,12.25
2018-06-22T22:21:20.952Z,12.22
2018-06-22T22:23:50.503Z,12.21
2018-06-22T22:26:20.654Z,12.21
2018-06-22T22:28:49.994Z,12.19
2018-06-22T22:31:19.421Z,12.19
2018-06-22T22:33:48.832Z,12.19
2018-06-22T22:36:18.198Z,12.17
2018-06-22T22:38:47.805Z,12.17
2018-06-22T22:41:17.103Z,12.14
2018-06-22T22:43:46.484Z,12.15
2018-06-22T22:46:15.885Z,12.12
2018-06-22T22:48:45.637Z,12.08
2018-06-22T22:51:16.524Z,12.06
2018-06-22T22:53:46.229Z,12.02
2018-06-22T22:56:15.842Z,12.02
2018-06-22T22:58:45.665Z,12.03
2018-06-22T23:01:15.372Z,12.07
2018-06-22T23:03:45.073Z,12.10
2018-06-22T23:06:14.768Z,12.10
2018-06-22T23:08:44.197Z,12.06
2018-06-22T23:11:13.688Z,12.04
2018-06-22T23:13:43.358Z,12.04
2018-06-22T23:16:13.009Z,12.03
2018-06-22T23:18:43.013Z,12.02
2018-06-22T23:21:12.556Z,12.03
2018-06-22T23:23:42.478Z,12.03
2018-06-22T23:26:12.017Z,12.05
2018-06-22T23:28:41.969Z,12.08
2018-06-22T23:31:11.711Z,12.06
2018-06-22T23:33:41.289Z,12.04
2018-06-22T23:36:10.780Z,11.99
2018-06-22T23:38:40.426Z,12.01
2018-06-22T23:41:10.099Z,12.00
2018-06-22T23:43:40.319Z,11.98
2018-06-22T23:46:09.808Z,11.96
2018-06-22T23:48:39.536Z,11.94
2018-06-22T23:51:09.075Z,11.92
2018-06-22T23:53:38.681Z,11.92
2018-06-22T23:56:08.411Z,11.90
2018-06-22T23:58:37.992Z,11.90
